Time;durP1;ratioP1;P1;durP2;ratioP2;P2;SDS_P1;SDS_P2;PMS_P1;PMS_P2;Temp;Humidity;BMP_temperature;BMP_pressure;BME280_temperature;BME280_humidity;BME280_pressure;Samples;Min_cycle;Max_cycle;Signal;HPM_P1;HPM_P2
2021/12/03 00:02:24;;;;;;;;;;;3.60;99.90;;;;;;5093638;28;19912;-78
2021/12/03 00:04:49;;;;;;;;;;;3.60;99.90;;;;;;5093934;28;19912;-78
2021/12/03 00:07:15;;;;;;;;;;;3.70;99.90;;;;;;5094297;28;19912;-77
2021/12/03 00:09:41;;;;;;;;;;;3.50;99.90;;;;;;5076164;28;19943;-78
2021/12/03 00:12:06;;;;;;;;;;;3.30;99.90;;;;;;5094381;28;19923;-79
2021/12/03 00:14:33;;;;;;;;;;;3.40;99.90;;;;;;5075953;28;19908;-79
2021/12/03 00:16:59;;;;;;;;;;;3.60;99.90;;;;;;5074122;28;19908;-78
2021/12/03 00:19:24;;;;;;;;;;;3.80;99.90;;;;;;5073899;28;20383;-78
2021/12/03 00:21:50;;;;;;;;;;;4.00;99.90;;;;;;5074100;28;20003;-78
2021/12/03 00:24:16;;;;;;;;;;;4.10;99.90;;;;;;5073752;28;19912;-78
2021/12/03 00:26:42;;;;;;;;;;;4.20;99.90;;;;;;5073941;28;19997;-78
2021/12/03 00:29:08;;;;;;;;;;;4.30;99.90;;;;;;5073909;28;19931;-78
2021/12/03 00:31:34;;;;;;;;;;;4.00;99.90;;;;;;5056322;28;20252;-78
2021/12/03 00:33:59;;;;;;;;;;;3.80;99.90;;;;;;5073582;28;19915;-78
2021/12/03 00:36:27;;;;;;;;;;;3.80;99.90;;;;;;5073718;28;19909;-78
2021/12/03 00:38:56;;;;;;;;;;;3.80;99.90;;;;;;5055495;28;19908;-79
2021/12/03 00:41:22;;;;;;;;;;;3.90;99.90;;;;;;5073124;28;19908;-78
2021/12/03 00:43:51;;;;;;;;;;;4.10;99.90;;;;;;5053692;28;19923;-77
2021/12/03 00:46:17;;;;;;;;;;;4.10;99.90;;;;;;5073455;28;20430;-78
2021/12/03 00:48:45;;;;;;;;;;;4.10;99.90;;;;;;5073276;28;19912;-78
2021/12/03 00:51:12;;;;;;;;;;;4.00;99.90;;;;;;5055905;28;19916;-78
2021/12/03 00:53:38;;;;;;;;;;;4.10;99.90;;;;;;5072716;28;19927;-77
2021/12/03 00:56:04;;;;;;;;;;;4.00;99.90;;;;;;5055594;28;19908;-78
2021/12/03 00:58:30;;;;;;;;;;;4.10;99.90;;;;;;5073820;28;19987;-78
2021/12/03 01:00:55;;;;;;;;;;;4.00;99.90;;;;;;5073568;28;19922;-79
2021/12/03 01:03:21;;;;;;;;;;;4.10;99.90;;;;;;5049217;28;20019;-78
2021/12/03 01:05:47;;;;;;;;;;;4.30;99.90;;;;;;5073254;28;19944;-78
2021/12/03 01:08:13;;;;;;;;;;;4.40;99.90;;;;;;5049098;28;19920;-78
2021/12/03 01:10:38;;;;;;;;;;;4.40;99.90;;;;;;5073357;28;19928;-78
2021/12/03 01:13:04;;;;;;;;;;;4.40;99.90;;;;;;5073609;28;19908;-79
2021/12/03 01:15:31;;;;;;;;;;;4.40;99.90;;;;;;5055407;28;19912;-78
2021/12/03 01:17:57;;;;;;;;;;;4.40;99.90;;;;;;5072461;28;19909;-78
2021/12/03 01:20:23;;;;;;;;;;;4.50;99.90;;;;;;5073348;28;19909;-77
2021/12/03 01:22:50;;;;;;;;;;;4.50;99.90;;;;;;5073442;28;20003;-78
2021/12/03 01:25:16;;;;;;;;;;;4.60;99.90;;;;;;5073527;28;19912;-79
2021/12/03 01:27:41;;;;;;;;;;;4.60;99.90;;;;;;5072840;28;19954;-78
2021/12/03 01:30:08;;;;;;;;;;;4.80;99.90;;;;;;5073228;28;20002;-78
2021/12/03 01:32:34;;;;;;;;;;;4.90;99.90;;;;;;5073515;28;20050;-78
2021/12/03 01:35:00;;;;;;;;;;;4.90;99.90;;;;;;5073339;28;20459;-79
2021/12/03 01:37:25;;;;;;;;;;;5.00;99.90;;;;;;5073004;28;20003;-78
2021/12/03 01:39:51;;;;;;;;;;;4.80;99.90;;;;;;5055211;28;20395;-79
2021/12/03 01:42:17;;;;;;;;;;;4.90;99.90;;;;;;5073340;28;19999;-77
2021/12/03 01:44:42;;;;;;;;;;;5.10;99.90;;;;;;5073295;28;20498;-78
2021/12/03 01:47:08;;;;;;;;;;;5.00;99.90;;;;;;5072859;28;20289;-78
2021/12/03 01:49:34;;;;;;;;;;;5.00;99.90;;;;;;5073262;28;20335;-78
2021/12/03 01:51:59;;;;;;;;;;;5.00;99.90;;;;;;5072350;28;20347;-79
2021/12/03 01:54:25;;;;;;;;;;;5.10;99.90;;;;;;5054030;28;19908;-78
2021/12/03 01:56:51;;;;;;;;;;;5.20;99.90;;;;;;5072122;28;19912;-78
2021/12/03 01:59:16;;;;;;;;;;;5.10;99.90;;;;;;5072187;28;19908;-79
2021/12/03 02:01:42;;;;;;;;;;;5.10;99.90;;;;;;5072195;28;20296;-78
2021/12/03 02:04:08;;;;;;;;;;;5.00;99.90;;;;;;5072109;28;19951;-79
2021/12/03 02:06:34;;;;;;;;;;;5.10;99.90;;;;;;5072807;28;20323;-78
2021/12/03 02:09:00;;;;;;;;;;;5.00;99.90;;;;;;5046180;28;19942;-78
2021/12/03 02:11:26;;;;;;;;;;;5.10;99.90;;;;;;5072677;28;19920;-78
2021/12/03 02:13:53;;;;;;;;;;;4.90;99.90;;;;;;5073483;28;19912;-78
2021/12/03 02:16:19;;;;;;;;;;;5.10;99.90;;;;;;5076820;28;20494;-79
2021/12/03 02:18:45;;;;;;;;;;;5.20;99.90;;;;;;5076960;28;19950;-78
2021/12/03 02:21:11;;;;;;;;;;;5.20;99.90;;;;;;5076980;28;19956;-79
2021/12/03 02:23:38;;;;;;;;;;;5.10;99.90;;;;;;5058697;28;20406;-79
2021/12/03 02:26:04;;;;;;;;;;;5.10;99.90;;;;;;5076203;28;19908;-78
2021/12/03 02:28:31;;;;;;;;;;;5.20;99.90;;;;;;5094977;28;20068;-78
2021/12/03 02:30:56;;;;;;;;;;;5.40;99.90;;;;;;5096725;28;19908;-79
2021/12/03 02:33:22;;;;;;;;;;;5.40;99.90;;;;;;5077335;28;19908;-78
2021/12/03 02:35:48;;;;;;;;;;;5.10;99.90;;;;;;5077116;28;20368;-78
2021/12/03 02:38:16;;;;;;;;;;;5.10;99.90;;;;;;5095492;28;20435;-78
2021/12/03 02:40:43;;;;;;;;;;;5.40;99.90;;;;;;5096530;28;19948;-78
2021/12/03 02:43:09;;;;;;;;;;;5.40;99.90;;;;;;5096455;28;19915;-78
2021/12/03 02:45:35;;;;;;;;;;;5.30;99.90;;;;;;5078255;28;20284;-78
2021/12/03 02:48:02;;;;;;;;;;;5.40;99.90;;;;;;5094658;28;19912;-78
2021/12/03 02:50:28;;;;;;;;;;;5.60;99.90;;;;;;5096341;28;20049;-78
2021/12/03 02:52:53;;;;;;;;;;;5.70;99.90;;;;;;5096460;28;19944;-78
2021/12/03 02:55:19;;;;;;;;;;;5.80;99.90;;;;;;5078035;28;19908;-79
2021/12/03 02:57:45;;;;;;;;;;;5.70;99.90;;;;;;5077953;28;19908;-79
2021/12/03 03:00:12;;;;;;;;;;;5.50;99.90;;;;;;5096278;28;19946;-79
2021/12/03 03:02:40;;;;;;;;;;;5.30;99.90;;;;;;5078184;28;20269;-79
2021/12/03 03:05:06;;;;;;;;;;;5.30;99.90;;;;;;5096152;28;20357;-79
2021/12/03 03:07:31;;;;;;;;;;;5.20;99.90;;;;;;5095778;28;19908;-79
2021/12/03 03:09:57;;;;;;;;;;;5.20;99.90;;;;;;5095366;28;19908;-77
2021/12/03 03:12:23;;;;;;;;;;;5.20;99.90;;;;;;5095931;28;19994;-78
2021/12/03 03:14:56;;;;;;;;;;;5.20;99.90;;;;;;5095984;28;19910;-79
2021/12/03 03:17:23;;;;;;;;;;;5.20;99.90;;;;;;5087363;28;19909;-78
2021/12/03 03:19:48;;;;;;;;;;;5.20;99.90;;;;;;5075783;28;19958;-77
2021/12/03 03:22:14;;;;;;;;;;;5.10;99.90;;;;;;5075821;28;19912;-78
2021/12/03 03:24:41;;;;;;;;;;;5.10;99.90;;;;;;5057126;28;19913;-78
2021/12/03 03:27:06;;;;;;;;;;;5.00;99.90;;;;;;5074396;28;19910;-79
2021/12/03 03:29:32;;;;;;;;;;;5.10;99.90;;;;;;5075060;28;20021;-79
2021/12/03 03:31:58;;;;;;;;;;;5.10;99.90;;;;;;5075179;28;19931;-78
2021/12/03 03:34:23;;;;;;;;;;;5.10;99.90;;;;;;5057204;28;20368;-78
2021/12/03 03:36:49;;;;;;;;;;;5.10;99.90;;;;;;5055696;28;20041;-78
2021/12/03 03:39:15;;;;;;;;;;;5.20;99.90;;;;;;5074381;28;19915;-78
2021/12/03 03:41:41;;;;;;;;;;;5.20;99.90;;;;;;5074779;28;19917;-78
2021/12/03 03:44:08;;;;;;;;;;;5.10;99.90;;;;;;5056521;28;19926;-78
2021/12/03 03:46:33;;;;;;;;;;;5.30;99.90;;;;;;5074724;28;20025;-79
2021/12/03 03:48:59;;;;;;;;;;;5.40;99.90;;;;;;5075007;28;20383;-78
2021/12/03 03:51:25;;;;;;;;;;;5.60;99.90;;;;;;5075131;28;19909;-78
2021/12/03 03:53:50;;;;;;;;;;;5.50;99.90;;;;;;5074639;28;19919;-78
2021/12/03 03:56:16;;;;;;;;;;;5.60;99.90;;;;;;5056047;28;19936;-78
2021/12/03 03:58:42;;;;;;;;;;;5.60;99.90;;;;;;5056179;28;20272;-78
2021/12/03 04:01:11;;;;;;;;;;;5.60;99.90;;;;;;5057094;28;20333;-78
2021/12/03 04:03:37;;;;;;;;;;;5.60;99.90;;;;;;5075042;28;19912;-77
2021/12/03 04:06:03;;;;;;;;;;;5.60;99.90;;;;;;5074968;28;20007;-78
2021/12/03 04:08:29;;;;;;;;;;;5.60;99.90;;;;;;5055739;28;19944;-79
2021/12/03 04:10:56;;;;;;;;;;;5.70;99.90;;;;;;5074544;28;19990;-78
2021/12/03 04:13:21;;;;;;;;;;;5.60;99.90;;;;;;5075144;28;19909;-78
2021/12/03 04:15:48;;;;;;;;;;;5.60;99.90;;;;;;5074671;28;20357;-78
2021/12/03 04:18:13;;;;;;;;;;;5.60;99.90;;;;;;5074301;28;19908;-78
2021/12/03 04:20:39;;;;;;;;;;;5.60;99.90;;;;;;5074725;28;19931;-78
2021/12/03 04:23:05;;;;;;;;;;;5.50;99.90;;;;;;5074433;28;20380;-78
2021/12/03 04:25:31;;;;;;;;;;;5.60;99.90;;;;;;5074787;28;20045;-78
2021/12/03 04:27:56;;;;;;;;;;;5.60;99.90;;;;;;5073882;28;20010;-78
2021/12/03 04:30:26;;;;;;;;;;;5.70;99.90;;;;;;5073567;28;19931;-79
2021/12/03 04:32:52;;;;;;;;;;;5.70;99.90;;;;;;5055803;28;20360;-77
2021/12/03 04:35:18;;;;;;;;;;;5.70;99.90;;;;;;5074565;28;19954;-78
2021/12/03 04:37:44;;;;;;;;;;;5.70;99.90;;;;;;5073585;28;20331;-79
2021/12/03 04:40:11;;;;;;;;;;;5.70;99.90;;;;;;5074089;28;19952;-78
2021/12/03 04:42:37;;;;;;;;;;;5.70;99.90;;;;;;5073920;28;20285;-77
2021/12/03 04:45:03;;;;;;;;;;;5.60;99.90;;;;;;5074040;28;19913;-78
2021/12/03 04:47:29;;;;;;;;;;;5.60;99.90;;;;;;5073787;28;19912;-78
2021/12/03 04:49:55;;;;;;;;;;;5.60;99.90;;;;;;5074142;28;19954;-78
2021/12/03 04:52:20;;;;;;;;;;;5.50;99.90;;;;;;5073964;28;19920;-78
2021/12/03 04:54:46;;;;;;;;;;;5.40;99.90;;;;;;5055903;28;19908;-77
2021/12/03 04:57:11;;;;;;;;;;;5.50;99.90;;;;;;5073603;28;19915;-78
2021/12/03 04:59:37;;;;;;;;;;;5.50;99.90;;;;;;5073785;28;19991;-78
2021/12/03 05:02:03;;;;;;;;;;;5.50;99.90;;;;;;5073133;28;19912;-78
2021/12/03 05:04:36;;;;;;;;;;;5.60;99.90;;;;;;5073516;28;20376;-78
2021/12/03 05:07:16;;;;;;;;;;;5.60;99.90;;;;;;5054061;28;19935;-78
2021/12/03 05:09:41;;;;;;;;;;;5.60;99.90;;;;;;5055468;28;19912;-78
2021/12/03 05:12:07;;;;;;;;;;;5.50;99.90;;;;;;5073539;28;19924;-77
2021/12/03 05:14:33;;;;;;;;;;;5.50;99.90;;;;;;5073707;28;20004;-78
2021/12/03 05:17:01;;;;;;;;;;;5.60;99.90;;;;;;5072254;28;20201;-78
2021/12/03 05:19:26;;;;;;;;;;;5.60;99.90;;;;;;5073517;28;20336;-78
2021/12/03 05:21:52;;;;;;;;;;;5.60;99.90;;;;;;5055677;28;19909;-79
2021/12/03 05:24:17;;;;;;;;;;;5.50;99.90;;;;;;5055221;28;19923;-78
2021/12/03 05:26:43;;;;;;;;;;;5.50;99.90;;;;;;5073584;28;20375;-79
2021/12/03 05:29:09;;;;;;;;;;;5.50;99.90;;;;;;5054952;28;19916;-79
2021/12/03 05:31:36;;;;;;;;;;;5.50;99.90;;;;;;5073459;28;19908;-79
2021/12/03 05:34:02;;;;;;;;;;;5.50;99.90;;;;;;5073457;28;19908;-80
2021/12/03 05:36:28;;;;;;;;;;;5.60;99.90;;;;;;5073399;28;19915;-79
2021/12/03 05:38:55;;;;;;;;;;;5.40;99.90;;;;;;5072932;28;19908;-81
2021/12/03 05:41:20;;;;;;;;;;;5.50;99.90;;;;;;5073276;28;19920;-81
2021/12/03 05:43:46;;;;;;;;;;;5.40;99.90;;;;;;5073312;28;19912;-81
2021/12/03 05:46:12;;;;;;;;;;;5.40;99.90;;;;;;5055242;28;19909;-82
2021/12/03 05:48:37;;;;;;;;;;;5.50;99.90;;;;;;5086302;28;19908;-82
2021/12/03 05:51:03;;;;;;;;;;;5.50;99.90;;;;;;5093451;28;19995;-82
2021/12/03 05:53:28;;;;;;;;;;;5.50;99.90;;;;;;5093325;28;19916;-83
2021/12/03 05:55:54;;;;;;;;;;;5.50;99.90;;;;;;5093450;28;19908;-82
2021/12/03 05:58:20;;;;;;;;;;;5.40;99.90;;;;;;5092947;28;19908;-82
2021/12/03 06:00:46;;;;;;;;;;;5.50;99.90;;;;;;5093094;28;20359;-82
2021/12/03 06:03:12;;;;;;;;;;;5.50;99.90;;;;;;5075131;28;20426;-82
2021/12/03 06:05:40;;;;;;;;;;;5.50;99.90;;;;;;5075091;28;19908;-83
2021/12/03 06:08:06;;;;;;;;;;;5.40;99.90;;;;;;5073865;28;19920;-82
2021/12/03 06:10:32;;;;;;;;;;;5.50;99.90;;;;;;5071369;28;19920;-81
2021/12/03 06:12:58;;;;;;;;;;;5.50;99.90;;;;;;5073075;28;20412;-82
2021/12/03 06:15:24;;;;;;;;;;;5.50;99.90;;;;;;5072728;28;19959;-83
2021/12/03 06:17:49;;;;;;;;;;;5.50;99.90;;;;;;5071176;28;19936;-81
2021/12/03 06:20:16;;;;;;;;;;;5.50;99.90;;;;;;5072821;28;19909;-83
2021/12/03 06:22:42;;;;;;;;;;;5.60;99.90;;;;;;5071660;28;19909;-82
2021/12/03 06:25:09;;;;;;;;;;;5.60;99.90;;;;;;5071381;28;20403;-83
2021/12/03 06:27:34;;;;;;;;;;;5.70;99.90;;;;;;5072636;28;19935;-82
2021/12/03 06:30:00;;;;;;;;;;;5.70;99.90;;;;;;5073011;28;19917;-82
2021/12/03 06:32:26;;;;;;;;;;;5.70;99.90;;;;;;5071548;28;20351;-82
2021/12/03 06:34:52;;;;;;;;;;;5.70;99.90;;;;;;5071555;28;19909;-83
2021/12/03 06:37:18;;;;;;;;;;;5.70;99.90;;;;;;5072592;28;20357;-82
2021/12/03 06:39:43;;;;;;;;;;;5.70;99.90;;;;;;5071345;28;19918;-81
2021/12/03 06:42:09;;;;;;;;;;;5.70;99.90;;;;;;5072824;28;19908;-81
2021/12/03 06:44:35;;;;;;;;;;;5.80;99.90;;;;;;5070827;28;19913;-82
2021/12/03 06:47:02;;;;;;;;;;;5.80;99.90;;;;;;5072828;28;19913;-82
2021/12/03 06:49:29;;;;;;;;;;;5.90;99.90;;;;;;5072176;28;19940;-81
2021/12/03 06:52:00;;;;;;;;;;;5.80;99.90;;;;;;5072773;28;20326;-81
2021/12/03 06:54:29;;;;;;;;;;;5.90;99.90;;;;;;5071062;28;20285;-82
2021/12/03 06:56:55;;;;;;;;;;;5.90;99.90;;;;;;5071368;28;20045;-82
2021/12/03 06:59:21;;;;;;;;;;;6.00;99.90;;;;;;5071997;28;19962;-81
2021/12/03 07:01:47;;;;;;;;;;;6.00;99.90;;;;;;5076047;28;19909;-81
2021/12/03 07:04:13;;;;;;;;;;;5.90;99.90;;;;;;5074810;28;19919;-82
2021/12/03 07:06:39;;;;;;;;;;;6.00;99.90;;;;;;5076011;28;20479;-81
2021/12/03 07:09:05;;;;;;;;;;;5.90;99.90;;;;;;5051222;28;19948;-81
2021/12/03 07:11:31;;;;;;;;;;;6.00;99.90;;;;;;5090804;28;19931;-81
2021/12/03 07:13:56;;;;;;;;;;;6.00;99.90;;;;;;5078062;28;19941;-82
2021/12/03 07:16:22;;;;;;;;;;;6.00;99.90;;;;;;5096198;28;20325;-82
2021/12/03 07:18:48;;;;;;;;;;;6.00;99.90;;;;;;5095696;28;19908;-82
2021/12/03 07:21:14;;;;;;;;;;;6.00;99.90;;;;;;5096162;28;19915;-82
2021/12/03 07:23:40;;;;;;;;;;;6.10;99.90;;;;;;5077613;28;19915;-81
2021/12/03 07:26:06;;;;;;;;;;;6.10;99.90;;;;;;5095972;28;19970;-82
2021/12/03 07:28:31;;;;;;;;;;;6.10;99.90;;;;;;5095585;28;19934;-81
2021/12/03 07:30:57;;;;;;;;;;;6.10;99.90;;;;;;5095827;28;19908;-82
2021/12/03 07:33:23;;;;;;;;;;;6.10;99.90;;;;;;5095834;28;19908;-82
2021/12/03 07:35:48;;;;;;;;;;;6.20;99.90;;;;;;5095547;28;20372;-82
2021/12/03 07:38:15;;;;;;;;;;;6.20;99.90;;;;;;5095455;28;19908;-82
2021/12/03 07:40:42;;;;;;;;;;;6.20;99.90;;;;;;5095663;28;19912;-82
2021/12/03 07:43:08;;;;;;;;;;;6.30;99.90;;;;;;5095652;28;19908;-83
2021/12/03 07:45:33;;;;;;;;;;;6.40;99.90;;;;;;5095600;28;20272;-82
2021/12/03 07:47:59;;;;;;;;;;;6.50;99.90;;;;;;5095084;28;20011;-82
2021/12/03 07:50:24;;;;;;;;;;;6.50;99.90;;;;;;5077437;28;19908;-82
2021/12/03 07:52:50;;;;;;;;;;;6.50;99.90;;;;;;5095464;28;19953;-82
2021/12/03 07:55:16;;;;;;;;;;;6.60;99.90;;;;;;5077197;28;19908;-82
2021/12/03 07:57:41;;;;;;;;;;;6.60;99.90;;;;;;5076960;28;19908;-82
2021/12/03 08:00:07;;;;;;;;;;;6.60;99.90;;;;;;5095134;28;19947;-82
2021/12/03 08:02:33;;;;;;;;;;;6.70;99.90;;;;;;5077146;28;19920;-82
2021/12/03 08:04:58;;;;;;;;;;;6.70;99.90;;;;;;5095120;28;19978;-82
2021/12/03 08:07:24;;;;;;;;;;;6.70;99.90;;;;;;5077067;28;19915;-82
2021/12/03 08:09:50;;;;;;;;;;;6.80;99.90;;;;;;5052667;28;20406;-82
2021/12/03 08:12:16;;;;;;;;;;;6.80;99.90;;;;;;5094875;28;19987;-83
2021/12/03 08:14:41;;;;;;;;;;;6.90;99.90;;;;;;5095350;28;19914;-81
2021/12/03 08:17:07;;;;;;;;;;;6.90;99.90;;;;;;5077884;28;19908;-82
2021/12/03 08:19:33;;;;;;;;;;;6.90;99.90;;;;;;5094674;28;19908;-82
2021/12/03 08:21:59;;;;;;;;;;;6.90;99.90;;;;;;5095352;28;19915;-82
2021/12/03 08:24:24;;;;;;;;;;;6.90;99.90;;;;;;5095347;28;19918;-81
2021/12/03 08:26:53;;;;;;;;;;;7.00;99.90;;;;;;5095138;28;20253;-83
2021/12/03 08:29:19;;;;;;;;;;;7.10;99.90;;;;;;5094980;28;19908;-82
2021/12/03 08:31:45;;;;;;;;;;;7.10;99.90;;;;;;5095079;28;19995;-82
2021/12/03 08:34:10;;;;;;;;;;;7.20;99.90;;;;;;5095612;28;19970;-82
2021/12/03 08:36:36;;;;;;;;;;;7.30;99.90;;;;;;5077219;28;19915;-82
2021/12/03 08:39:02;;;;;;;;;;;7.30;99.90;;;;;;5082690;28;19909;-81
2021/12/03 08:41:28;;;;;;;;;;;7.40;99.90;;;;;;5056845;28;19913;-81
2021/12/03 08:43:53;;;;;;;;;;;7.60;99.90;;;;;;5056191;28;19919;-81
2021/12/03 08:46:32;;;;;;;;;;;7.60;99.90;;;;;;5074210;28;19915;-81
2021/12/03 08:57:05;;;;;;;;;;;7.90;99.90;;;;;;5029486;28;19962;-80
2021/12/03 08:59:31;;;;;;;;;;;7.90;99.90;;;;;;5089527;28;19916;-80
2021/12/03 09:01:56;;;;;;;;;;;8.00;99.90;;;;;;5094773;28;19915;-81
2021/12/03 09:04:23;;;;;;;;;;;8.00;99.90;;;;;;5094706;28;19919;-82
2021/12/03 09:06:49;;;;;;;;;;;8.00;99.90;;;;;;5093670;28;20280;-81
2021/12/03 09:09:14;;;;;;;;;;;8.20;99.90;;;;;;5057362;28;19923;-81
2021/12/03 09:11:40;;;;;;;;;;;8.40;99.90;;;;;;5074041;28;19924;-81
2021/12/03 09:14:17;;;;;;;;;;;8.50;99.90;;;;;;5074595;28;19908;-81
2021/12/03 09:16:45;;;;;;;;;;;8.50;99.90;;;;;;5074723;28;19908;-80
2021/12/03 09:19:18;;;;;;;;;;;8.60;99.90;;;;;;5086370;28;20337;-81
2021/12/03 09:21:45;;;;;;;;;;;8.60;99.90;;;;;;5094736;28;19912;-81
2021/12/03 09:24:17;;;;;;;;;;;8.70;99.90;;;;;;5094228;28;19922;-80
2021/12/03 09:26:43;;;;;;;;;;;8.70;99.90;;;;;;5094705;28;19908;-81
2021/12/03 09:29:10;;;;;;;;;;;8.70;99.90;;;;;;5094104;28;19953;-80
2021/12/03 09:31:37;;;;;;;;;;;8.70;99.90;;;;;;5094267;28;19930;-79
2021/12/03 09:34:09;;;;;;;;;;;8.80;99.90;;;;;;5076443;28;20268;-81
2021/12/03 09:36:36;;;;;;;;;;;8.80;99.90;;;;;;5094605;28;19908;-80
2021/12/03 09:39:03;;;;;;;;;;;8.90;99.90;;;;;;5083481;28;19908;-80
2021/12/03 09:41:29;;;;;;;;;;;9.00;99.90;;;;;;5073895;28;19908;-81
2021/12/03 09:43:54;;;;;;;;;;;9.00;99.90;;;;;;5073882;28;19912;-79
2021/12/03 09:46:23;;;;;;;;;;;9.20;99.90;;;;;;5073890;28;19915;-81
2021/12/03 09:51:23;;;;;;;;;;;9.20;99.90;;;;;;5073809;28;20360;-80
2021/12/03 09:56:33;;;;;;;;;;;9.30;99.90;;;;;;5073855;28;19915;-81
2021/12/03 10:01:38;;;;;;;;;;;9.50;99.90;;;;;;5074278;28;20001;-80
2021/12/03 10:14:51;;;;;;;;;;;9.80;99.90;;;;;;5073386;28;20003;-80
2021/12/03 10:23:25;;;;;;;;;;;9.90;99.90;;;;;;5073631;28;20007;-81
2021/12/03 10:44:05;;;;;;;;;;;10.30;99.90;;;;;;5097911;28;19914;-82
2021/12/03 10:57:03;;;;;;;;;;;10.70;99.90;;;;;;5097280;28;20252;-81
2021/12/03 11:16:01;;;;;;;;;;;11.00;99.90;;;;;;5076377;28;20442;-82
2021/12/03 11:27:14;;;;;;;;;;;11.20;99.90;;;;;;5076221;28;20304;-82
2021/12/03 11:45:32;;;;;;;;;;;11.50;99.90;;;;;;5088859;28;19912;-82
2021/12/03 12:34:34;;;;;;;;;;;12.50;99.90;;;;;;5055058;28;20373;-81
2021/12/03 12:40:05;;;;;;;;;;;12.70;99.90;;;;;;5054745;28;20338;-81
2021/12/03 12:43:01;;;;;;;;;;;12.80;99.90;;;;;;5054806;28;20373;-80
2021/12/03 14:02:02;;;;;;;;;;;13.30;99.90;;;;;;5074259;28;20001;-79
2021/12/03 14:16:31;;;;;;;;;;;13.10;99.90;;;;;;5098234;28;19959;-80
2021/12/03 14:44:21;;;;;;;;;;;13.10;99.90;;;;;;5076953;28;19966;-80
2021/12/03 14:55:26;;;;;;;;;;;13.10;99.90;;;;;;5077227;28;19958;-79
2021/12/03 14:57:59;;;;;;;;;;;13.10;99.90;;;;;;5077181;28;19969;-80
2021/12/03 15:00:30;;;;;;;;;;;13.10;99.90;;;;;;5070336;28;20003;-79
2021/12/03 15:08:21;;;;;;;;;;;13.00;99.90;;;;;;5097229;28;19908;-80
2021/12/03 15:21:49;;;;;;;;;;;12.90;99.90;;;;;;5096526;28;19953;-80
2021/12/03 15:35:04;;;;;;;;;;;12.70;99.90;;;;;;5096338;28;19998;-81
2021/12/03 16:04:39;;;;;;;;;;;12.50;99.90;;;;;;5075058;28;19920;-81
2021/12/03 16:07:17;;;;;;;;;;;12.50;99.90;;;;;;5075146;28;19915;-80
2021/12/03 16:10:10;;;;;;;;;;;12.50;99.90;;;;;;5037124;28;19919;-80
2021/12/03 16:52:49;;;;;;;;;;;12.30;99.90;;;;;;5094054;28;20026;-80
2021/12/03 16:55:16;;;;;;;;;;;12.30;99.90;;;;;;5075876;28;20364;-81
2021/12/03 16:57:43;;;;;;;;;;;12.30;99.90;;;;;;5094265;28;19912;-81
2021/12/03 17:00:36;;;;;;;;;;;12.30;99.90;;;;;;5091926;28;19954;-80
2021/12/03 17:13:56;;;;;;;;;;;12.20;99.90;;;;;;5073380;28;19912;-80
2021/12/03 17:49:13;;;;;;;;;;;12.40;99.90;;;;;;5093648;28;19908;-80
2021/12/03 17:56:48;;;;;;;;;;;12.50;99.90;;;;;;5093487;28;20292;-81
2021/12/03 18:01:53;;;;;;;;;;;12.50;99.90;;;;;;5092961;28;20373;-80
2021/12/03 18:04:27;;;;;;;;;;;12.50;99.90;;;;;;5074914;28;19965;-80
2021/12/03 18:12:27;;;;;;;;;;;12.50;99.90;;;;;;5073612;28;19924;-80
2021/12/03 18:47:40;;;;;;;;;;;12.70;99.90;;;;;;5072716;28;20411;-80
2021/12/03 18:52:49;;;;;;;;;;;12.60;99.90;;;;;;5072874;28;19938;-81
2021/12/03 18:55:18;;;;;;;;;;;12.60;99.90;;;;;;5072472;28;20403;-80
2021/12/03 18:57:45;;;;;;;;;;;12.70;99.90;;;;;;5076225;28;19912;-81
2021/12/03 19:00:16;;;;;;;;;;;12.70;99.90;;;;;;5057979;28;20178;-80
2021/12/03 19:02:46;;;;;;;;;;;12.70;99.90;;;;;;5076275;28;19913;-80
2021/12/03 19:10:11;;;;;;;;;;;12.70;99.90;;;;;;5075430;28;19923;-80
2021/12/03 19:12:40;;;;;;;;;;;12.70;99.90;;;;;;5056748;28;19923;-80
2021/12/03 19:15:06;;;;;;;;;;;12.70;99.90;;;;;;5058187;28;19908;-80
2021/12/03 19:17:36;;;;;;;;;;;12.70;99.90;;;;;;5075951;28;19912;-80
2021/12/03 19:20:04;;;;;;;;;;;12.70;99.90;;;;;;5075768;28;19919;-81
2021/12/03 19:22:30;;;;;;;;;;;12.70;99.90;;;;;;5075925;28;20379;-80
2021/12/03 19:24:57;;;;;;;;;;;12.70;99.90;;;;;;5057614;28;19919;-81
2021/12/03 19:27:25;;;;;;;;;;;12.60;99.90;;;;;;5075759;28;20283;-81
2021/12/03 19:29:51;;;;;;;;;;;12.60;99.90;;;;;;5075820;28;20015;-81
2021/12/03 19:32:17;;;;;;;;;;;12.50;99.90;;;;;;5075274;28;19908;-81
2021/12/03 19:34:43;;;;;;;;;;;12.40;99.90;;;;;;5057769;28;19931;-82
2021/12/03 19:37:08;;;;;;;;;;;12.40;99.90;;;;;;5075446;28;20376;-83
2021/12/03 19:39:37;;;;;;;;;;;12.40;99.90;;;;;;5075444;28;20063;-83
2021/12/03 19:42:11;;;;;;;;;;;12.50;99.90;;;;;;5075131;28;19909;-83
2021/12/03 19:44:45;;;;;;;;;;;12.40;99.90;;;;;;5057196;28;19913;-84
2021/12/03 19:47:12;;;;;;;;;;;12.40;99.90;;;;;;5075652;28;19909;-82
2021/12/03 19:50:23;;;;;;;;;;;12.50;99.90;;;;;;5057420;28;20005;-83
2021/12/03 19:52:37;;;;;;;;;;;12.50;99.90;;;;;;5066367;28;19915;-84
2021/12/03 19:55:03;;;;;;;;;;;12.40;99.90;;;;;;5057366;28;19913;-83
2021/12/03 19:57:29;;;;;;;;;;;12.40;99.90;;;;;;5075253;28;19912;-84
2021/12/03 19:59:55;;;;;;;;;;;12.40;99.90;;;;;;5075085;28;20324;-84
2021/12/03 20:02:21;;;;;;;;;;;12.40;99.90;;;;;;5074688;28;19908;-84
2021/12/03 20:04:46;;;;;;;;;;;12.30;99.90;;;;;;5074990;28;19962;-83
2021/12/03 20:07:12;;;;;;;;;;;12.30;99.90;;;;;;5056542;28;19912;-84
2021/12/03 20:09:46;;;;;;;;;;;12.30;99.90;;;;;;5074719;28;19912;-83
2021/12/03 20:12:16;;;;;;;;;;;12.30;99.90;;;;;;5037632;28;19929;-83
2021/12/03 20:14:44;;;;;;;;;;;12.30;99.90;;;;;;5056848;28;19912;-84
2021/12/03 20:17:18;;;;;;;;;;;12.30;99.90;;;;;;5074996;28;20376;-84
2021/12/03 20:19:49;;;;;;;;;;;12.30;99.90;;;;;;5056611;28;19916;-83
2021/12/03 20:22:20;;;;;;;;;;;12.30;99.90;;;;;;5056499;28;20330;-81
2021/12/03 20:25:37;;;;;;;;;;;12.30;99.90;;;;;;5056410;28;19913;-82
2021/12/03 20:37:59;;;;;;;;;;;12.40;99.90;;;;;;5095090;28;19931;-82
2021/12/03 20:40:27;;;;;;;;;;;12.50;99.90;;;;;;5092983;28;19908;-81
2021/12/03 20:43:13;;;;;;;;;;;12.50;99.90;;;;;;5056433;28;19908;-83
2021/12/03 20:48:23;;;;;;;;;;;12.60;99.90;;;;;;5074098;28;19909;-81
2021/12/03 21:09:41;;;;;;;;;;;12.70;99.90;;;;;;5073571;28;19950;-80
2021/12/03 21:12:17;;;;;;;;;;;12.70;99.90;;;;;;5044899;28;19924;-79
2021/12/03 21:14:51;;;;;;;;;;;12.70;99.90;;;;;;5094113;28;19912;-80
2021/12/03 21:20:50;;;;;;;;;;;12.70;99.90;;;;;;5093723;28;19923;-80
2021/12/03 21:22:48;;;;;;;;;;;12.70;99.90;;;;;;5065805;28;20391;-80
2021/12/03 21:25:17;;;;;;;;;;;12.70;99.90;;;;;;5055292;28;20007;-80
2021/12/03 21:27:47;;;;;;;;;;;12.70;99.90;;;;;;5073584;28;19908;-79
2021/12/03 21:30:35;;;;;;;;;;;12.70;99.90;;;;;;5073538;28;19912;-80
2021/12/03 21:43:14;;;;;;;;;;;12.70;99.90;;;;;;5073362;28;19915;-79
2021/12/03 21:45:41;;;;;;;;;;;12.70;99.90;;;;;;5073313;28;19913;-79
2021/12/03 21:48:06;;;;;;;;;;;12.70;99.90;;;;;;5055181;28;19955;-78
2021/12/03 21:50:32;;;;;;;;;;;12.80;99.90;;;;;;5073280;28;19951;-80
2021/12/03 21:52:58;;;;;;;;;;;12.80;99.90;;;;;;5073327;28;19954;-79
2021/12/03 21:55:26;;;;;;;;;;;12.80;99.90;;;;;;5073025;28;19916;-79
2021/12/03 21:57:53;;;;;;;;;;;12.90;99.90;;;;;;5073264;28;19915;-79
2021/12/03 22:00:19;;;;;;;;;;;12.80;99.90;;;;;;5055005;28;19912;-78
2021/12/03 22:02:45;;;;;;;;;;;12.90;99.90;;;;;;5072789;28;19991;-79
2021/12/03 22:05:10;;;;;;;;;;;13.00;99.90;;;;;;5073077;28;19912;-79
2021/12/03 22:07:36;;;;;;;;;;;12.90;99.90;;;;;;5073153;28;20403;-79
2021/12/03 22:10:02;;;;;;;;;;;12.90;99.90;;;;;;5072754;28;19912;-78
2021/12/03 22:12:29;;;;;;;;;;;13.00;99.90;;;;;;5048486;28;20050;-79
2021/12/03 22:14:54;;;;;;;;;;;12.90;99.90;;;;;;5073173;28;19909;-79
2021/12/03 22:17:20;;;;;;;;;;;12.90;99.90;;;;;;5073047;28;19923;-80
2021/12/03 22:19:45;;;;;;;;;;;12.90;99.90;;;;;;5055123;28;20323;-80
2021/12/03 22:22:11;;;;;;;;;;;12.90;99.90;;;;;;5085326;28;20469;-78
2021/12/03 22:24:38;;;;;;;;;;;13.00;99.90;;;;;;5092932;28;19935;-80
2021/12/03 22:27:04;;;;;;;;;;;13.00;99.90;;;;;;5093292;28;19912;-79
2021/12/03 22:29:30;;;;;;;;;;;13.00;99.90;;;;;;5093140;28;19999;-79
2021/12/03 22:31:55;;;;;;;;;;;13.00;99.90;;;;;;5095326;28;20011;-79
2021/12/03 22:34:21;;;;;;;;;;;13.00;99.90;;;;;;5097045;28;19966;-79
2021/12/03 22:36:47;;;;;;;;;;;13.10;99.90;;;;;;5096916;28;19912;-78
2021/12/03 22:39:12;;;;;;;;;;;13.00;99.90;;;;;;5096840;28;20265;-80
2021/12/03 22:41:40;;;;;;;;;;;13.10;99.90;;;;;;5096658;28;19960;-79
2021/12/03 22:44:06;;;;;;;;;;;13.10;99.90;;;;;;5095593;28;19915;-80
2021/12/03 22:47:00;;;;;;;;;;;13.10;99.90;;;;;;5096889;28;20312;-79
2021/12/03 22:52:14;;;;;;;;;;;13.00;99.90;;;;;;5096600;28;19908;-78
2021/12/03 22:54:46;;;;;;;;;;;13.10;99.90;;;;;;5096569;28;19916;-80
2021/12/03 22:57:12;;;;;;;;;;;13.00;99.90;;;;;;5096771;28;19916;-80
2021/12/03 22:59:38;;;;;;;;;;;13.10;99.90;;;;;;5096504;28;19983;-79
2021/12/03 23:02:05;;;;;;;;;;;13.00;99.90;;;;;;5096282;28;20342;-80